Portada
METAR-TAF:

METAR-TAF

Aeroports :

Recife, Pernambuco, Brasil

latitud: 08-08S, longitud: 034-55W, altitud: 19 m

Observació

L'informe es va fer fa 29 minuts, a les 07:00 UTC
Vent 7 kt del Est/Sud-Est
Temperatura 25°C
Humitat 79%
Pressió 1011 hPa
Visibilitat 10 km o més
Escasses núvols a una alçada de 2300 ft
Cel ennuvolat a una alçada de 6000 ft

METAR: SBRF 250700Z 12007KT 9999 FEW023 BKN060 25/21 Q1011

Hora: 04:29 (07:29 UTC)

Pronòstic

L'informe es va fer fa 4 hores i 29 minuts, a les 03:00 UTC
Pronòstic vàlid del 25 a les 06 UTC al 26 a les 06 UTC
Vent 8 kt del Est/Sud-Est
Visibilitat: 9000 m
Núvols disperses a una alçada de 2000 ft
Probabilitat 40% :
Temporalment
l' 25 a les 08 UTC al 25 a les 10 UTC
Visibilitat: 5000 m
Cel ennuvolat a una alçada de 1700 ft
Escasses núvols a una alçada de 2500 ft, Cumulus congestus.
xàfecs de pluja

TAF: SBRF 250300Z 2506/2606 11008KT 9000 SCT020 TN25/2509Z TX29/2515Z PROB40 TEMPO 2508/2510 5000 SHRA BKN017 FEW025TCU RMK PEI

Observacions i pronòstics meteorològics de més de 4000 aeroports (METAR i TAF).

Les estacions disponibles són els punts grocs i vermells al mapa.

Posi el ratolí al punt desitjat per veure el nom de l'estació.

Feu clic per veure les observacions i els pronòstics meteorològics.

Per canviar el mapa: feu clic els botons verds amb una creu de color negre per apropar; al botó verd amb un guió per allunyar la imatge; o en les fletxes verdes per a mapes adjacents.


METAR-TAF: